sensor_id;sensor_type;location;lat;lon;timestamp;temperature;humidity
82001;SHT30;71522;50.870;3.524;2024-02-21T00:01:22;10.15;82.23
82001;SHT30;71522;50.870;3.524;2024-02-21T00:03:48;10.17;82.22
82001;SHT30;71522;50.870;3.524;2024-02-21T00:06:14;10.15;82.18
82001;SHT30;71522;50.870;3.524;2024-02-21T00:08:39;10.10;82.39
82001;SHT30;71522;50.870;3.524;2024-02-21T00:11:05;10.10;82.46
82001;SHT30;71522;50.870;3.524;2024-02-21T00:13:31;10.15;82.47
82001;SHT30;71522;50.870;3.524;2024-02-21T00:15:57;10.22;82.07
82001;SHT30;71522;50.870;3.524;2024-02-21T00:18:22;10.19;82.05
82001;SHT30;71522;50.870;3.524;2024-02-21T00:20:48;10.22;82.10
82001;SHT30;71522;50.870;3.524;2024-02-21T00:23:13;10.13;82.20
82001;SHT30;71522;50.870;3.524;2024-02-21T00:25:39;10.13;82.00
82001;SHT30;71522;50.870;3.524;2024-02-21T00:28:05;10.08;81.77
82001;SHT30;71522;50.870;3.524;2024-02-21T00:30:31;10.05;81.56
82001;SHT30;71522;50.870;3.524;2024-02-21T00:32:57;9.88;81.95
82001;SHT30;71522;50.870;3.524;2024-02-21T00:35:23;9.92;81.83
82001;SHT30;71522;50.870;3.524;2024-02-21T00:37:48;9.89;81.96
82001;SHT30;71522;50.870;3.524;2024-02-21T00:40:14;9.88;82.00
82001;SHT30;71522;50.870;3.524;2024-02-21T00:42:45;9.89;81.90
82001;SHT30;71522;50.870;3.524;2024-02-21T00:45:11;9.92;81.72
82001;SHT30;71522;50.870;3.524;2024-02-21T00:47:37;9.89;81.91
82001;SHT30;71522;50.870;3.524;2024-02-21T00:50:03;9.92;81.87
82001;SHT30;71522;50.870;3.524;2024-02-21T00:52:28;9.91;81.86
82001;SHT30;71522;50.870;3.524;2024-02-21T00:54:54;9.89;81.81
82001;SHT30;71522;50.870;3.524;2024-02-21T00:57:20;9.81;81.84
82001;SHT30;71522;50.870;3.524;2024-02-21T00:59:46;9.82;81.85
82001;SHT30;71522;50.870;3.524;2024-02-21T01:02:12;9.79;81.88
82001;SHT30;71522;50.870;3.524;2024-02-21T01:04:37;9.77;81.93
82001;SHT30;71522;50.870;3.524;2024-02-21T01:07:03;9.74;81.82
82001;SHT30;71522;50.870;3.524;2024-02-21T01:09:29;9.62;82.12
82001;SHT30;71522;50.870;3.524;2024-02-21T01:11:57;9.67;81.87
82001;SHT30;71522;50.870;3.524;2024-02-21T01:14:22;9.65;81.87
82001;SHT30;71522;50.870;3.524;2024-02-21T01:16:48;9.57;81.98
82001;SHT30;71522;50.870;3.524;2024-02-21T01:19:14;9.61;82.00
82001;SHT30;71522;50.870;3.524;2024-02-21T01:21:39;9.52;82.00
82001;SHT30;71522;50.870;3.524;2024-02-21T01:24:05;9.41;82.15
82001;SHT30;71522;50.870;3.524;2024-02-21T01:26:31;9.37;82.41
82001;SHT30;71522;50.870;3.524;2024-02-21T01:28:56;9.43;82.58
82001;SHT30;71522;50.870;3.524;2024-02-21T01:31:22;9.47;82.36
82001;SHT30;71522;50.870;3.524;2024-02-21T01:33:48;9.47;82.01
82001;SHT30;71522;50.870;3.524;2024-02-21T01:36:14;9.50;81.94
82001;SHT30;71522;50.870;3.524;2024-02-21T01:38:40;9.46;82.21
82001;SHT30;71522;50.870;3.524;2024-02-21T01:41:06;9.47;81.87
82001;SHT30;71522;50.870;3.524;2024-02-21T01:43:31;9.44;81.88
82001;SHT30;71522;50.870;3.524;2024-02-21T01:45:57;9.31;81.98
82001;SHT30;71522;50.870;3.524;2024-02-21T01:48:24;9.26;82.24
82001;SHT30;71522;50.870;3.524;2024-02-21T01:50:51;9.23;82.20
82001;SHT30;71522;50.870;3.524;2024-02-21T01:53:22;9.19;82.32
82001;SHT30;71522;50.870;3.524;2024-02-21T01:55:49;9.13;82.62
82001;SHT30;71522;50.870;3.524;2024-02-21T01:58:15;9.12;82.60
82001;SHT30;71522;50.870;3.524;2024-02-21T02:00:44;9.12;82.83
82001;SHT30;71522;50.870;3.524;2024-02-21T02:03:13;9.12;82.78
82001;SHT30;71522;50.870;3.524;2024-02-21T02:05:49;9.12;82.45
82001;SHT30;71522;50.870;3.524;2024-02-21T02:08:15;9.05;82.61
82001;SHT30;71522;50.870;3.524;2024-02-21T02:10:41;9.03;82.62
82001;SHT30;71522;50.870;3.524;2024-02-21T02:13:08;8.96;82.70
82001;SHT30;71522;50.870;3.524;2024-02-21T02:15:42;9.00;82.70
82001;SHT30;71522;50.870;3.524;2024-02-21T02:18:08;8.98;82.66
82001;SHT30;71522;50.870;3.524;2024-02-21T02:20:35;8.93;82.87
82001;SHT30;71522;50.870;3.524;2024-02-21T02:23:08;9.02;83.10
82001;SHT30;71522;50.870;3.524;2024-02-21T02:25:39;9.12;82.97
82001;SHT30;71522;50.870;3.524;2024-02-21T02:28:07;9.16;82.94
82001;SHT30;71522;50.870;3.524;2024-02-21T02:30:46;9.17;83.00
82001;SHT30;71522;50.870;3.524;2024-02-21T02:33:12;9.30;82.63
82001;SHT30;71522;50.870;3.524;2024-02-21T02:35:37;9.34;82.31
82001;SHT30;71522;50.870;3.524;2024-02-21T02:38:03;9.40;82.13
82001;SHT30;71522;50.870;3.524;2024-02-21T02:40:30;9.46;81.82
82001;SHT30;71522;50.870;3.524;2024-02-21T02:42:56;9.41;82.03
82001;SHT30;71522;50.870;3.524;2024-02-21T02:45:23;9.46;81.93
82001;SHT30;71522;50.870;3.524;2024-02-21T02:47:55;9.47;81.90
82001;SHT30;71522;50.870;3.524;2024-02-21T02:50:26;9.47;81.86
82001;SHT30;71522;50.870;3.524;2024-02-21T02:52:52;9.51;81.69
82001;SHT30;71522;50.870;3.524;2024-02-21T02:55:18;9.57;81.50
82001;SHT30;71522;50.870;3.524;2024-02-21T02:57:44;9.58;81.33
82001;SHT30;71522;50.870;3.524;2024-02-21T03:00:14;9.51;81.54
82001;SHT30;71522;50.870;3.524;2024-02-21T03:02:42;9.50;81.54
82001;SHT30;71522;50.870;3.524;2024-02-21T03:05:18;9.51;81.47
82001;SHT30;71522;50.870;3.524;2024-02-21T03:07:47;9.48;81.58
82001;SHT30;71522;50.870;3.524;2024-02-21T03:10:13;9.47;81.63
82001;SHT30;71522;50.870;3.524;2024-02-21T03:12:39;9.52;81.36
82001;SHT30;71522;50.870;3.524;2024-02-21T03:15:06;9.52;81.49
82001;SHT30;71522;50.870;3.524;2024-02-21T03:17:32;9.57;81.44
82001;SHT30;71522;50.870;3.524;2024-02-21T03:20:03;9.55;81.35
82001;SHT30;71522;50.870;3.524;2024-02-21T03:22:36;9.54;81.29
82001;SHT30;71522;50.870;3.524;2024-02-21T03:25:02;9.58;81.25
82001;SHT30;71522;50.870;3.524;2024-02-21T03:27:28;9.54;81.33
82001;SHT30;71522;50.870;3.524;2024-02-21T03:29:54;9.57;81.24
82001;SHT30;71522;50.870;3.524;2024-02-21T03:32:20;9.58;81.24
82001;SHT30;71522;50.870;3.524;2024-02-21T03:34:45;9.57;81.28
82001;SHT30;71522;50.870;3.524;2024-02-21T03:37:11;9.51;81.34
82001;SHT30;71522;50.870;3.524;2024-02-21T03:39:39;9.46;81.70
82001;SHT30;71522;50.870;3.524;2024-02-21T03:42:06;9.38;81.93
82001;SHT30;71522;50.870;3.524;2024-02-21T03:44:32;9.40;81.99
82001;SHT30;71522;50.870;3.524;2024-02-21T03:47:01;9.37;82.02
82001;SHT30;71522;50.870;3.524;2024-02-21T03:49:27;9.36;82.07
82001;SHT30;71522;50.870;3.524;2024-02-21T03:51:54;9.37;82.16
82001;SHT30;71522;50.870;3.524;2024-02-21T03:54:20;9.37;82.17
82001;SHT30;71522;50.870;3.524;2024-02-21T03:56:46;9.36;82.08
82001;SHT30;71522;50.870;3.524;2024-02-21T03:59:15;9.44;81.90
82001;SHT30;71522;50.870;3.524;2024-02-21T04:01:41;9.44;81.66
82001;SHT30;71522;50.870;3.524;2024-02-21T04:04:06;9.46;81.59
82001;SHT30;71522;50.870;3.524;2024-02-21T04:06:32;9.43;81.80
82001;SHT30;71522;50.870;3.524;2024-02-21T04:08:58;9.43;81.82
82001;SHT30;71522;50.870;3.524;2024-02-21T04:11:24;9.37;82.05
82001;SHT30;71522;50.870;3.524;2024-02-21T04:13:50;9.34;82.15
82001;SHT30;71522;50.870;3.524;2024-02-21T04:16:17;9.37;82.13
82001;SHT30;71522;50.870;3.524;2024-02-21T04:18:43;9.40;81.97
82001;SHT30;71522;50.870;3.524;2024-02-21T04:21:09;9.40;82.13
82001;SHT30;71522;50.870;3.524;2024-02-21T04:23:35;9.37;82.10
82001;SHT30;71522;50.870;3.524;2024-02-21T04:26:01;9.41;82.00
82001;SHT30;71522;50.870;3.524;2024-02-21T04:28:27;9.34;82.21
82001;SHT30;71522;50.870;3.524;2024-02-21T04:30:53;9.38;82.20
82001;SHT30;71522;50.870;3.524;2024-02-21T04:33:18;9.40;82.13
82001;SHT30;71522;50.870;3.524;2024-02-21T04:35:44;9.37;82.05
82001;SHT30;71522;50.870;3.524;2024-02-21T04:38:10;9.40;82.15
82001;SHT30;71522;50.870;3.524;2024-02-21T04:40:35;9.41;82.08
82001;SHT30;71522;50.870;3.524;2024-02-21T04:43:01;9.37;82.24
82001;SHT30;71522;50.870;3.524;2024-02-21T04:45:27;9.36;82.20
82001;SHT30;71522;50.870;3.524;2024-02-21T04:47:53;9.38;82.34
82001;SHT30;71522;50.870;3.524;2024-02-21T04:50:18;9.40;82.13
82001;SHT30;71522;50.870;3.524;2024-02-21T04:52:44;9.46;82.02
82001;SHT30;71522;50.870;3.524;2024-02-21T04:55:10;9.57;81.82
82001;SHT30;71522;50.870;3.524;2024-02-21T04:57:35;9.51;81.82
82001;SHT30;71522;50.870;3.524;2024-02-21T05:00:01;9.51;81.94
82001;SHT30;71522;50.870;3.524;2024-02-21T05:02:27;9.47;82.10
82001;SHT30;71522;50.870;3.524;2024-02-21T05:04:53;9.38;82.23
82001;SHT30;71522;50.870;3.524;2024-02-21T05:07:19;9.37;82.42
82001;SHT30;71522;50.870;3.524;2024-02-21T05:09:45;9.40;82.40
82001;SHT30;71522;50.870;3.524;2024-02-21T05:12:11;9.44;82.19
82001;SHT30;71522;50.870;3.524;2024-02-21T05:14:37;9.41;82.30
82001;SHT30;71522;50.870;3.524;2024-02-21T05:17:04;9.34;82.38
82001;SHT30;71522;50.870;3.524;2024-02-21T05:19:30;9.33;82.49
82001;SHT30;71522;50.870;3.524;2024-02-21T05:21:55;9.26;82.72
82001;SHT30;71522;50.870;3.524;2024-02-21T05:24:24;9.27;82.79
82001;SHT30;71522;50.870;3.524;2024-02-21T05:26:53;9.31;82.64
82001;SHT30;71522;50.870;3.524;2024-02-21T05:29:19;9.30;82.71
82001;SHT30;71522;50.870;3.524;2024-02-21T05:32:00;9.34;82.50
82001;SHT30;71522;50.870;3.524;2024-02-21T05:34:26;9.31;82.56
82001;SHT30;71522;50.870;3.524;2024-02-21T05:36:52;9.24;82.57
82001;SHT30;71522;50.870;3.524;2024-02-21T05:39:22;9.24;82.62
82001;SHT30;71522;50.870;3.524;2024-02-21T05:41:50;9.31;82.41
82001;SHT30;71522;50.870;3.524;2024-02-21T05:44:16;9.31;82.42
82001;SHT30;71522;50.870;3.524;2024-02-21T05:46:42;9.31;82.58
82001;SHT30;71522;50.870;3.524;2024-02-21T05:49:08;9.30;82.57
82001;SHT30;71522;50.870;3.524;2024-02-21T05:51:34;9.37;82.48
82001;SHT30;71522;50.870;3.524;2024-02-21T05:54:01;9.31;82.58
82001;SHT30;71522;50.870;3.524;2024-02-21T05:56:27;9.33;82.52
82001;SHT30;71522;50.870;3.524;2024-02-21T05:58:55;9.29;82.58
82001;SHT30;71522;50.870;3.524;2024-02-21T06:01:21;9.33;82.57
82001;SHT30;71522;50.870;3.524;2024-02-21T06:03:48;9.34;82.49
82001;SHT30;71522;50.870;3.524;2024-02-21T06:06:16;9.33;82.54
82001;SHT30;71522;50.870;3.524;2024-02-21T06:08:42;9.31;82.69
82001;SHT30;71522;50.870;3.524;2024-02-21T06:11:08;9.31;82.63
82001;SHT30;71522;50.870;3.524;2024-02-21T06:13:38;9.31;82.67
82001;SHT30;71522;50.870;3.524;2024-02-21T06:16:05;9.40;82.47
82001;SHT30;71522;50.870;3.524;2024-02-21T06:18:34;9.43;82.32
82001;SHT30;71522;50.870;3.524;2024-02-21T06:21:00;9.41;82.31
82001;SHT30;71522;50.870;3.524;2024-02-21T06:23:26;9.43;82.32
82001;SHT30;71522;50.870;3.524;2024-02-21T06:25:52;9.43;82.16
82001;SHT30;71522;50.870;3.524;2024-02-21T06:28:17;9.47;82.10
82001;SHT30;71522;50.870;3.524;2024-02-21T06:30:55;9.47;81.96
82001;SHT30;71522;50.870;3.524;2024-02-21T06:33:26;9.46;81.83
82001;SHT30;71522;50.870;3.524;2024-02-21T06:35:53;9.46;81.91
82001;SHT30;71522;50.870;3.524;2024-02-21T06:38:19;9.47;81.86
82001;SHT30;71522;50.870;3.524;2024-02-21T06:40:45;9.44;81.95
82001;SHT30;71522;50.870;3.524;2024-02-21T06:43:17;9.43;82.01
82001;SHT30;71522;50.870;3.524;2024-02-21T06:45:44;9.38;82.11
82001;SHT30;71522;50.870;3.524;2024-02-21T06:48:13;9.46;82.03
82001;SHT30;71522;50.870;3.524;2024-02-21T06:50:40;9.41;82.10
82001;SHT30;71522;50.870;3.524;2024-02-21T06:53:06;9.36;82.25
82001;SHT30;71522;50.870;3.524;2024-02-21T06:55:32;9.37;82.25
82001;SHT30;71522;50.870;3.524;2024-02-21T06:57:58;9.40;82.15
82001;SHT30;71522;50.870;3.524;2024-02-21T07:00:23;9.46;82.05
82001;SHT30;71522;50.870;3.524;2024-02-21T07:02:51;9.43;82.00
82001;SHT30;71522;50.870;3.524;2024-02-21T07:05:17;9.48;81.95
82001;SHT30;71522;50.870;3.524;2024-02-21T07:07:42;9.55;81.81
82001;SHT30;71522;50.870;3.524;2024-02-21T07:10:09;9.55;81.85
82001;SHT30;71522;50.870;3.524;2024-02-21T07:12:44;9.57;81.72
82001;SHT30;71522;50.870;3.524;2024-02-21T07:15:33;9.55;81.69
82001;SHT30;71522;50.870;3.524;2024-02-21T07:18:05;9.52;81.83
82001;SHT30;71522;50.870;3.524;2024-02-21T07:20:30;9.59;81.80
82001;SHT30;71522;50.870;3.524;2024-02-21T07:22:59;9.59;81.62
82001;SHT30;71522;50.870;3.524;2024-02-21T07:25:25;9.58;81.51
82001;SHT30;71522;50.870;3.524;2024-02-21T07:27:52;9.57;81.71
82001;SHT30;71522;50.870;3.524;2024-02-21T07:30:18;9.51;81.88
82001;SHT30;71522;50.870;3.524;2024-02-21T07:32:44;9.57;81.76
82001;SHT30;71522;50.870;3.524;2024-02-21T07:35:09;9.58;81.66
82001;SHT30;71522;50.870;3.524;2024-02-21T07:37:38;9.55;81.89
82001;SHT30;71522;50.870;3.524;2024-02-21T07:40:12;9.55;81.94
82001;SHT30;71522;50.870;3.524;2024-02-21T07:42:38;9.64;81.82
82001;SHT30;71522;50.870;3.524;2024-02-21T07:45:05;9.70;81.67
82001;SHT30;71522;50.870;3.524;2024-02-21T07:47:30;9.67;81.57
82001;SHT30;71522;50.870;3.524;2024-02-21T07:49:56;9.65;81.49
82001;SHT30;71522;50.870;3.524;2024-02-21T07:52:22;9.65;81.53
82001;SHT30;71522;50.870;3.524;2024-02-21T07:54:47;9.70;81.39
82001;SHT30;71522;50.870;3.524;2024-02-21T07:57:13;9.73;81.31
82001;SHT30;71522;50.870;3.524;2024-02-21T07:59:39;9.71;81.25
82001;SHT30;71522;50.870;3.524;2024-02-21T08:02:05;9.73;80.97
82001;SHT30;71522;50.870;3.524;2024-02-21T08:04:32;9.75;80.86
82001;SHT30;71522;50.870;3.524;2024-02-21T08:06:58;9.77;80.74
82001;SHT30;71522;50.870;3.524;2024-02-21T08:09:27;9.79;80.71
82001;SHT30;71522;50.870;3.524;2024-02-21T08:11:54;9.73;80.64
82001;SHT30;71522;50.870;3.524;2024-02-21T08:14:20;9.74;80.48
82001;SHT30;71522;50.870;3.524;2024-02-21T08:16:47;9.81;80.29
82001;SHT30;71522;50.870;3.524;2024-02-21T08:19:12;9.75;80.27
82001;SHT30;71522;50.870;3.524;2024-02-21T08:21:38;9.78;80.26
82001;SHT30;71522;50.870;3.524;2024-02-21T08:24:07;9.86;80.18
82001;SHT30;71522;50.870;3.524;2024-02-21T08:26:43;9.77;80.36
82001;SHT30;71522;50.870;3.524;2024-02-21T08:29:11;9.70;80.43
82001;SHT30;71522;50.870;3.524;2024-02-21T08:31:37;9.79;80.35
82001;SHT30;71522;50.870;3.524;2024-02-21T08:34:03;9.86;80.12
82001;SHT30;71522;50.870;3.524;2024-02-21T08:36:48;9.89;79.80
82001;SHT30;71522;50.870;3.524;2024-02-21T08:39:17;9.89;80.07
82001;SHT30;71522;50.870;3.524;2024-02-21T08:41:48;9.94;79.88
82001;SHT30;71522;50.870;3.524;2024-02-21T08:44:21;9.89;79.86
82001;SHT30;71522;50.870;3.524;2024-02-21T08:46:49;9.88;79.79
82001;SHT30;71522;50.870;3.524;2024-02-21T08:49:15;9.91;79.68
82001;SHT30;71522;50.870;3.524;2024-02-21T08:51:41;9.95;79.72
82001;SHT30;71522;50.870;3.524;2024-02-21T08:54:12;9.94;79.49
82001;SHT30;71522;50.870;3.524;2024-02-21T08:56:37;9.92;79.43
82001;SHT30;71522;50.870;3.524;2024-02-21T08:59:04;9.95;79.47
82001;SHT30;71522;50.870;3.524;2024-02-21T09:01:38;10.01;79.68
82001;SHT30;71522;50.870;3.524;2024-02-21T09:04:07;9.91;79.58
82001;SHT30;71522;50.870;3.524;2024-02-21T09:06:34;9.95;79.62
82001;SHT30;71522;50.870;3.524;2024-02-21T09:09:05;10.05;79.51
82001;SHT30;71522;50.870;3.524;2024-02-21T09:11:54;10.06;79.17
82001;SHT30;71522;50.870;3.524;2024-02-21T09:14:20;10.10;79.15
82001;SHT30;71522;50.870;3.524;2024-02-21T09:16:46;10.15;78.90
82001;SHT30;71522;50.870;3.524;2024-02-21T09:19:15;10.12;78.94
82001;SHT30;71522;50.870;3.524;2024-02-21T09:22:15;10.05;79.03
82001;SHT30;71522;50.870;3.524;2024-02-21T09:24:41;10.15;79.28
82001;SHT30;71522;50.870;3.524;2024-02-21T09:27:12;10.20;78.77
82001;SHT30;71522;50.870;3.524;2024-02-21T09:29:37;10.36;78.75
82001;SHT30;71522;50.870;3.524;2024-02-21T09:32:05;10.49;78.34
82001;SHT30;71522;50.870;3.524;2024-02-21T09:34:31;10.64;77.89
82001;SHT30;71522;50.870;3.524;2024-02-21T09:36:56;10.68;77.78
82001;SHT30;71522;50.870;3.524;2024-02-21T09:39:22;10.71;77.72
82001;SHT30;71522;50.870;3.524;2024-02-21T09:42:05;10.90;77.34
82001;SHT30;71522;50.870;3.524;2024-02-21T09:44:47;10.95;76.99
82001;SHT30;71522;50.870;3.524;2024-02-21T09:47:34;10.87;76.80
82001;SHT30;71522;50.870;3.524;2024-02-21T09:50:05;10.84;76.82
82001;SHT30;71522;50.870;3.524;2024-02-21T09:52:33;10.74;77.35
82001;SHT30;71522;50.870;3.524;2024-02-21T09:55:01;10.83;77.63
82001;SHT30;71522;50.870;3.524;2024-02-21T09:57:35;10.87;77.18
82001;SHT30;71522;50.870;3.524;2024-02-21T10:00:01;10.90;76.85
82001;SHT30;71522;50.870;3.524;2024-02-21T10:02:48;10.87;76.91
82001;SHT30;71522;50.870;3.524;2024-02-21T10:05:17;10.81;77.24
82001;SHT30;71522;50.870;3.524;2024-02-21T10:07:47;10.80;76.99
82001;SHT30;71522;50.870;3.524;2024-02-21T10:10:15;10.78;77.30
82001;SHT30;71522;50.870;3.524;2024-02-21T10:12:51;10.78;77.25
82001;SHT30;71522;50.870;3.524;2024-02-21T10:15:24;10.75;77.35
82001;SHT30;71522;50.870;3.524;2024-02-21T10:18:00;10.78;77.55
82001;SHT30;71522;50.870;3.524;2024-02-21T10:20:33;10.91;77.14
82001;SHT30;71522;50.870;3.524;2024-02-21T10:23:05;10.90;77.04
82001;SHT30;71522;50.870;3.524;2024-02-21T10:25:38;10.85;77.36
82001;SHT30;71522;50.870;3.524;2024-02-21T10:28:07;10.80;77.32
82001;SHT30;71522;50.870;3.524;2024-02-21T10:30:33;10.87;77.20
82001;SHT30;71522;50.870;3.524;2024-02-21T10:33:02;10.88;77.17
82001;SHT30;71522;50.870;3.524;2024-02-21T10:35:32;10.77;76.55
82001;SHT30;71522;50.870;3.524;2024-02-21T10:37:58;10.67;77.17
82001;SHT30;71522;50.870;3.524;2024-02-21T10:41:09;10.64;77.76
82001;SHT30;71522;50.870;3.524;2024-02-21T10:43:55;10.64;77.34
82001;SHT30;71522;50.870;3.524;2024-02-21T10:46:22;10.56;77.48
82001;SHT30;71522;50.870;3.524;2024-02-21T10:49:01;10.59;77.58
82001;SHT30;71522;50.870;3.524;2024-02-21T10:51:45;10.57;77.74
82001;SHT30;71522;50.870;3.524;2024-02-21T10:56:50;10.63;77.83
82001;SHT30;71522;50.870;3.524;2024-02-21T10:59:17;10.57;77.67
82001;SHT30;71522;50.870;3.524;2024-02-21T11:01:43;10.61;77.41
82001;SHT30;71522;50.870;3.524;2024-02-21T11:04:10;10.44;77.81
82001;SHT30;71522;50.870;3.524;2024-02-21T11:06:39;10.39;78.02
82001;SHT30;71522;50.870;3.524;2024-02-21T11:09:07;10.49;78.32
82001;SHT30;71522;50.870;3.524;2024-02-21T11:11:34;10.60;78.22
82001;SHT30;71522;50.870;3.524;2024-02-21T11:17:40;10.64;77.64
82001;SHT30;71522;50.870;3.524;2024-02-21T11:20:33;10.73;77.24
82001;SHT30;71522;50.870;3.524;2024-02-21T11:23:00;10.80;76.88
82001;SHT30;71522;50.870;3.524;2024-02-21T11:25:39;10.78;76.88
82001;SHT30;71522;50.870;3.524;2024-02-21T11:28:28;10.84;76.80
82001;SHT30;71522;50.870;3.524;2024-02-21T11:31:04;10.73;77.05
82001;SHT30;71522;50.870;3.524;2024-02-21T11:33:29;10.71;77.07
82001;SHT30;71522;50.870;3.524;2024-02-21T11:35:55;10.71;77.14
82001;SHT30;71522;50.870;3.524;2024-02-21T11:38:37;10.67;77.07
82001;SHT30;71522;50.870;3.524;2024-02-21T11:41:21;10.63;77.19
82001;SHT30;71522;50.870;3.524;2024-02-21T11:43:49;10.81;76.94
82001;SHT30;71522;50.870;3.524;2024-02-21T11:46:45;10.65;76.65
82001;SHT30;71522;50.870;3.524;2024-02-21T11:49:12;10.63;76.91
82001;SHT30;71522;50.870;3.524;2024-02-21T11:52:04;10.75;77.00
82001;SHT30;71522;50.870;3.524;2024-02-21T11:54:35;10.68;77.31
82001;SHT30;71522;50.870;3.524;2024-02-21T11:57:04;10.64;77.30
82001;SHT30;71522;50.870;3.524;2024-02-21T11:59:50;10.59;77.29
82001;SHT30;71522;50.870;3.524;2024-02-21T12:02:18;10.56;77.11
82001;SHT30;71522;50.870;3.524;2024-02-21T12:04:55;10.70;77.06
82001;SHT30;71522;50.870;3.524;2024-02-21T12:07:29;10.77;76.83
82001;SHT30;71522;50.870;3.524;2024-02-21T12:09:59;10.88;76.35
82001;SHT30;71522;50.870;3.524;2024-02-21T12:12:25;10.90;76.41
82001;SHT30;71522;50.870;3.524;2024-02-21T12:14:57;10.94;76.50
82001;SHT30;71522;50.870;3.524;2024-02-21T12:17:47;11.02;76.72
82001;SHT30;71522;50.870;3.524;2024-02-21T12:20:21;10.97;76.43
82001;SHT30;71522;50.870;3.524;2024-02-21T12:23:10;10.97;76.19
82001;SHT30;71522;50.870;3.524;2024-02-21T12:25:51;11.01;76.41
82001;SHT30;71522;50.870;3.524;2024-02-21T12:28:27;11.10;76.67
82001;SHT30;71522;50.870;3.524;2024-02-21T12:30:53;11.26;76.14
82001;SHT30;71522;50.870;3.524;2024-02-21T12:33:19;11.25;75.67
82001;SHT30;71522;50.870;3.524;2024-02-21T12:36:05;11.32;75.94
82001;SHT30;71522;50.870;3.524;2024-02-21T12:41:46;11.25;75.53
82001;SHT30;71522;50.870;3.524;2024-02-21T12:44:15;11.16;76.07
82001;SHT30;71522;50.870;3.524;2024-02-21T12:47:05;11.00;76.21
82001;SHT30;71522;50.870;3.524;2024-02-21T12:49:59;11.02;76.44
82001;SHT30;71522;50.870;3.524;2024-02-21T12:52:35;10.93;76.97
82001;SHT30;71522;50.870;3.524;2024-02-21T12:57:48;10.85;77.56
82001;SHT30;71522;50.870;3.524;2024-02-21T13:00:40;10.87;77.70
82001;SHT30;71522;50.870;3.524;2024-02-21T13:03:19;10.73;78.18
82001;SHT30;71522;50.870;3.524;2024-02-21T13:05:49;10.80;78.47
82001;SHT30;71522;50.870;3.524;2024-02-21T13:08:14;10.84;78.57
82001;SHT30;71522;50.870;3.524;2024-02-21T13:10:40;10.88;78.76
82001;SHT30;71522;50.870;3.524;2024-02-21T13:13:06;10.84;78.87
82001;SHT30;71522;50.870;3.524;2024-02-21T13:15:31;10.68;79.39
82001;SHT30;71522;50.870;3.524;2024-02-21T13:17:57;10.67;80.20
82001;SHT30;71522;50.870;3.524;2024-02-21T13:20:42;10.71;80.24
82001;SHT30;71522;50.870;3.524;2024-02-21T13:23:29;10.74;79.91
82001;SHT30;71522;50.870;3.524;2024-02-21T13:26:11;10.63;80.16
82001;SHT30;71522;50.870;3.524;2024-02-21T13:28:45;10.65;80.67
82001;SHT30;71522;50.870;3.524;2024-02-21T13:31:18;10.63;81.00
82001;SHT30;71522;50.870;3.524;2024-02-21T13:33:44;10.61;80.70
82001;SHT30;71522;50.870;3.524;2024-02-21T13:36:12;10.65;80.71
82001;SHT30;71522;50.870;3.524;2024-02-21T13:38:42;10.64;80.58
82001;SHT30;71522;50.870;3.524;2024-02-21T13:41:08;10.53;80.93
82001;SHT30;71522;50.870;3.524;2024-02-21T13:43:59;10.56;80.88
82001;SHT30;71522;50.870;3.524;2024-02-21T13:46:40;10.54;81.11
82001;SHT30;71522;50.870;3.524;2024-02-21T13:49:42;10.56;81.17
82001;SHT30;71522;50.870;3.524;2024-02-21T13:52:23;10.71;81.13
82001;SHT30;71522;50.870;3.524;2024-02-21T14:01:40;10.70;80.94
82001;SHT30;71522;50.870;3.524;2024-02-21T14:04:23;10.57;81.24
82001;SHT30;71522;50.870;3.524;2024-02-21T14:07:51;10.50;81.69
82001;SHT30;71522;50.870;3.524;2024-02-21T14:10:21;10.46;81.93
82001;SHT30;71522;50.870;3.524;2024-02-21T14:13:17;10.46;81.93
82001;SHT30;71522;50.870;3.524;2024-02-21T14:15:44;10.44;82.10
82001;SHT30;71522;50.870;3.524;2024-02-21T14:21:25;10.32;82.29
82001;SHT30;71522;50.870;3.524;2024-02-21T14:23:51;10.36;82.35
82001;SHT30;71522;50.870;3.524;2024-02-21T14:26:18;10.33;82.26
82001;SHT30;71522;50.870;3.524;2024-02-21T14:31:31;10.28;82.44
82001;SHT30;71522;50.870;3.524;2024-02-21T14:34:29;10.25;82.83
82001;SHT30;71522;50.870;3.524;2024-02-21T14:39:58;10.28;82.31
82001;SHT30;71522;50.870;3.524;2024-02-21T14:48:38;10.25;82.82
82001;SHT30;71522;50.870;3.524;2024-02-21T14:54:12;10.09;83.47
82001;SHT30;71522;50.870;3.524;2024-02-21T14:56:38;10.10;83.48
82001;SHT30;71522;50.870;3.524;2024-02-21T14:59:05;10.12;83.68
82001;SHT30;71522;50.870;3.524;2024-02-21T15:08:06;10.25;83.31
82001;SHT30;71522;50.870;3.524;2024-02-21T15:10:35;10.20;83.31
82001;SHT30;71522;50.870;3.524;2024-02-21T15:13:06;10.12;83.42
82001;SHT30;71522;50.870;3.524;2024-02-21T15:16:00;10.08;83.69
82001;SHT30;71522;50.870;3.524;2024-02-21T15:18:33;10.10;83.53
82001;SHT30;71522;50.870;3.524;2024-02-21T15:21:04;10.06;83.66
82001;SHT30;71522;50.870;3.524;2024-02-21T15:23:41;10.10;83.63
82001;SHT30;71522;50.870;3.524;2024-02-21T15:26:07;10.10;83.80
82001;SHT30;71522;50.870;3.524;2024-02-21T15:28:46;10.10;83.87
82001;SHT30;71522;50.870;3.524;2024-02-21T15:31:20;10.12;83.96
82001;SHT30;71522;50.870;3.524;2024-02-21T15:33:47;10.10;83.93
82001;SHT30;71522;50.870;3.524;2024-02-21T15:36:13;10.16;83.81
82001;SHT30;71522;50.870;3.524;2024-02-21T15:42:52;10.12;84.16
82001;SHT30;71522;50.870;3.524;2024-02-21T15:44:52;10.19;83.96
82001;SHT30;71522;50.870;3.524;2024-02-21T15:47:18;10.17;83.97
82001;SHT30;71522;50.870;3.524;2024-02-21T15:50:20;10.17;83.97
82001;SHT30;71522;50.870;3.524;2024-02-21T15:52:46;10.19;84.19
82001;SHT30;71522;50.870;3.524;2024-02-21T15:55:35;10.20;84.09
82001;SHT30;71522;50.870;3.524;2024-02-21T16:01:46;10.30;84.04
82001;SHT30;71522;50.870;3.524;2024-02-21T16:04:18;10.23;84.04
82001;SHT30;71522;50.870;3.524;2024-02-21T16:07:01;10.16;84.35
82001;SHT30;71522;50.870;3.524;2024-02-21T16:16:16;10.23;84.53
82001;SHT30;71522;50.870;3.524;2024-02-21T16:18:59;10.25;84.57
82001;SHT30;71522;50.870;3.524;2024-02-21T16:21:49;10.26;84.33
82001;SHT30;71522;50.870;3.524;2024-02-21T16:24:37;10.32;84.31
82001;SHT30;71522;50.870;3.524;2024-02-21T16:27:20;10.33;84.40
82001;SHT30;71522;50.870;3.524;2024-02-21T16:32:42;10.28;84.57
82001;SHT30;71522;50.870;3.524;2024-02-21T16:35:08;10.30;84.51
82001;SHT30;71522;50.870;3.524;2024-02-21T16:37:34;10.29;84.64
82001;SHT30;71522;50.870;3.524;2024-02-21T16:40:00;10.29;84.86
82001;SHT30;71522;50.870;3.524;2024-02-21T16:42:39;10.33;84.60
82001;SHT30;71522;50.870;3.524;2024-02-21T16:48:46;10.37;84.48
82001;SHT30;71522;50.870;3.524;2024-02-21T16:51:12;10.30;84.69
82001;SHT30;71522;50.870;3.524;2024-02-21T16:53:44;10.33;84.70
82001;SHT30;71522;50.870;3.524;2024-02-21T16:56:31;10.25;84.97
82001;SHT30;71522;50.870;3.524;2024-02-21T16:59:20;10.29;84.90
82001;SHT30;71522;50.870;3.524;2024-02-21T17:02:25;10.28;84.96
82001;SHT30;71522;50.870;3.524;2024-02-21T17:04:51;10.22;85.11